Terminal Aerodrome Forecast
Issued by NWS Mt. Holly, NJ

Home | Current Version | Previous Version | Text Only | Print | Product List | Glossary On
Versions: 1 2 3 4 5 6 7 8 9 10 11 12 13 14 15 16 17
000
FTUS41 KPHI 191700 RRA
TAFRDG
TAF
KRDG 191745Z 1918/2018 09007KT P6SM SCT035 SCT050
      TEMPO 1918/1919 BKN029
     FM192000 13005KT P6SM SCT050 SCT080
     FM200500 14003KT P6SM OVC025
     FM200900 15002KT 5SM BR OVC012
      TEMPO 2009/2013 -DZ OVC010
     FM201300 16005KT P6SM BKN015
     FM201600 19008KT P6SM SCT030=

USA.gov is the U.S. government's official web portal to all federal, state and local government web resources and services.